sensor_id;sensor_type;location;lat;lon;timestamp;P1;durP1;ratioP1;P2;durP2;ratioP2
57842;SDS011;43673;51.058;3.734;2023-07-24T00:01:18;3.80;;;3.42;;
57842;SDS011;43673;51.058;3.734;2023-07-24T00:03:44;2.60;;;2.40;;
57842;SDS011;43673;51.058;3.734;2023-07-24T00:06:10;2.35;;;2.15;;
57842;SDS011;43673;51.058;3.734;2023-07-24T00:08:36;2.60;;;2.33;;
57842;SDS011;43673;51.058;3.734;2023-07-24T00:11:02;4.07;;;2.97;;
57842;SDS011;43673;51.058;3.734;2023-07-24T00:13:30;6.50;;;3.17;;
57842;SDS011;43673;51.058;3.734;2023-07-24T00:15:56;3.25;;;2.95;;
57842;SDS011;43673;51.058;3.734;2023-07-24T00:18:22;2.72;;;2.10;;
57842;SDS011;43673;51.058;3.734;2023-07-24T00:20:48;5.75;;;3.10;;
57842;SDS011;43673;51.058;3.734;2023-07-24T00:23:14;3.40;;;2.28;;
57842;SDS011;43673;51.058;3.734;2023-07-24T00:25:39;6.97;;;3.10;;
57842;SDS011;43673;51.058;3.734;2023-07-24T00:28:05;3.35;;;2.85;;
57842;SDS011;43673;51.058;3.734;2023-07-24T00:30:31;3.05;;;2.83;;
57842;SDS011;43673;51.058;3.734;2023-07-24T00:32:56;3.00;;;2.70;;
57842;SDS011;43673;51.058;3.734;2023-07-24T00:35:22;5.32;;;3.42;;
57842;SDS011;43673;51.058;3.734;2023-07-24T00:37:48;4.75;;;3.20;;
57842;SDS011;43673;51.058;3.734;2023-07-24T00:40:13;3.35;;;2.78;;
57842;SDS011;43673;51.058;3.734;2023-07-24T00:42:39;5.40;;;2.97;;
57842;SDS011;43673;51.058;3.734;2023-07-24T00:45:05;4.85;;;3.10;;
57842;SDS011;43673;51.058;3.734;2023-07-24T00:47:31;3.15;;;2.72;;
57842;SDS011;43673;51.058;3.734;2023-07-24T00:49:57;3.70;;;2.72;;
57842;SDS011;43673;51.058;3.734;2023-07-24T00:52:23;2.50;;;2.28;;
57842;SDS011;43673;51.058;3.734;2023-07-24T00:54:50;4.57;;;3.00;;
57842;SDS011;43673;51.058;3.734;2023-07-24T00:57:16;5.15;;;2.60;;
57842;SDS011;43673;51.058;3.734;2023-07-24T00:59:42;3.85;;;3.00;;
57842;SDS011;43673;51.058;3.734;2023-07-24T01:02:09;4.00;;;2.60;;
57842;SDS011;43673;51.058;3.734;2023-07-24T01:04:36;4.82;;;2.47;;
57842;SDS011;43673;51.058;3.734;2023-07-24T01:07:02;3.67;;;2.78;;
57842;SDS011;43673;51.058;3.734;2023-07-24T01:09:29;4.63;;;2.67;;
57842;SDS011;43673;51.058;3.734;2023-07-24T01:11:56;3.55;;;3.08;;
57842;SDS011;43673;51.058;3.734;2023-07-24T01:14:29;4.50;;;3.60;;
57842;SDS011;43673;51.058;3.734;2023-07-24T01:17:02;5.32;;;3.28;;
57842;SDS011;43673;51.058;3.734;2023-07-24T01:19:37;5.95;;;3.70;;
57842;SDS011;43673;51.058;3.734;2023-07-24T01:27:26;5.97;;;4.43;;
57842;SDS011;43673;51.058;3.734;2023-07-24T01:29:52;4.97;;;3.42;;
57842;SDS011;43673;51.058;3.734;2023-07-24T01:32:18;4.28;;;3.28;;
57842;SDS011;43673;51.058;3.734;2023-07-24T01:34:44;4.35;;;3.10;;
57842;SDS011;43673;51.058;3.734;2023-07-24T01:37:11;3.78;;;2.85;;
57842;SDS011;43673;51.058;3.734;2023-07-24T01:39:38;3.47;;;2.85;;
57842;SDS011;43673;51.058;3.734;2023-07-24T01:42:08;6.18;;;2.72;;
57842;SDS011;43673;51.058;3.734;2023-07-24T01:44:34;4.00;;;3.05;;
57842;SDS011;43673;51.058;3.734;2023-07-24T01:47:00;5.43;;;3.72;;
57842;SDS011;43673;51.058;3.734;2023-07-24T01:49:26;3.75;;;2.90;;
57842;SDS011;43673;51.058;3.734;2023-07-24T01:51:51;3.50;;;2.70;;
57842;SDS011;43673;51.058;3.734;2023-07-24T01:54:17;3.83;;;3.00;;
57842;SDS011;43673;51.058;3.734;2023-07-24T01:56:43;6.22;;;3.42;;
57842;SDS011;43673;51.058;3.734;2023-07-24T01:59:09;4.65;;;2.80;;
57842;SDS011;43673;51.058;3.734;2023-07-24T02:01:34;3.40;;;2.40;;
57842;SDS011;43673;51.058;3.734;2023-07-24T02:04:00;4.55;;;3.42;;
57842;SDS011;43673;51.058;3.734;2023-07-24T02:06:26;3.67;;;3.00;;
57842;SDS011;43673;51.058;3.734;2023-07-24T02:08:52;6.30;;;3.38;;
57842;SDS011;43673;51.058;3.734;2023-07-24T02:11:18;5.35;;;4.25;;
57842;SDS011;43673;51.058;3.734;2023-07-24T02:13:44;8.10;;;4.43;;
57842;SDS011;43673;51.058;3.734;2023-07-24T02:16:11;7.80;;;4.80;;
57842;SDS011;43673;51.058;3.734;2023-07-24T02:18:38;6.78;;;4.97;;
57842;SDS011;43673;51.058;3.734;2023-07-24T02:21:05;6.93;;;4.30;;
57842;SDS011;43673;51.058;3.734;2023-07-24T02:23:31;5.40;;;3.90;;
57842;SDS011;43673;51.058;3.734;2023-07-24T02:25:57;7.28;;;4.57;;
57842;SDS011;43673;51.058;3.734;2023-07-24T02:28:22;7.47;;;4.53;;
57842;SDS011;43673;51.058;3.734;2023-07-24T02:30:48;6.68;;;4.72;;
57842;SDS011;43673;51.058;3.734;2023-07-24T02:33:14;7.97;;;5.13;;
57842;SDS011;43673;51.058;3.734;2023-07-24T02:35:42;5.10;;;4.47;;
57842;SDS011;43673;51.058;3.734;2023-07-24T02:38:08;5.95;;;4.22;;
57842;SDS011;43673;51.058;3.734;2023-07-24T02:40:35;7.70;;;5.20;;
57842;SDS011;43673;51.058;3.734;2023-07-24T02:43:00;6.40;;;5.03;;
57842;SDS011;43673;51.058;3.734;2023-07-24T02:45:26;8.75;;;5.60;;
57842;SDS011;43673;51.058;3.734;2023-07-24T02:47:52;8.43;;;5.22;;
57842;SDS011;43673;51.058;3.734;2023-07-24T02:50:18;6.22;;;4.47;;
57842;SDS011;43673;51.058;3.734;2023-07-24T02:52:43;6.65;;;4.97;;
57842;SDS011;43673;51.058;3.734;2023-07-24T02:55:09;4.68;;;3.60;;
57842;SDS011;43673;51.058;3.734;2023-07-24T02:57:35;6.20;;;4.57;;
57842;SDS011;43673;51.058;3.734;2023-07-24T03:00:01;5.32;;;3.72;;
57842;SDS011;43673;51.058;3.734;2023-07-24T03:02:28;4.40;;;3.50;;
57842;SDS011;43673;51.058;3.734;2023-07-24T03:04:53;5.00;;;3.30;;
57842;SDS011;43673;51.058;3.734;2023-07-24T03:07:19;4.15;;;3.60;;
57842;SDS011;43673;51.058;3.734;2023-07-24T03:09:45;4.13;;;3.22;;
57842;SDS011;43673;51.058;3.734;2023-07-24T03:12:10;2.55;;;2.25;;
57842;SDS011;43673;51.058;3.734;2023-07-24T03:14:36;3.95;;;2.90;;
57842;SDS011;43673;51.058;3.734;2023-07-24T03:17:02;5.38;;;3.60;;
57842;SDS011;43673;51.058;3.734;2023-07-24T03:19:28;4.13;;;3.20;;
57842;SDS011;43673;51.058;3.734;2023-07-24T03:21:53;5.13;;;3.70;;
57842;SDS011;43673;51.058;3.734;2023-07-24T03:24:19;5.60;;;4.10;;
57842;SDS011;43673;51.058;3.734;2023-07-24T03:26:45;6.07;;;3.50;;
57842;SDS011;43673;51.058;3.734;2023-07-24T03:29:10;6.20;;;3.60;;
57842;SDS011;43673;51.058;3.734;2023-07-24T03:31:36;3.92;;;3.03;;
57842;SDS011;43673;51.058;3.734;2023-07-24T03:34:02;3.83;;;3.03;;
57842;SDS011;43673;51.058;3.734;2023-07-24T03:36:28;5.90;;;3.30;;
57842;SDS011;43673;51.058;3.734;2023-07-24T03:38:53;4.97;;;3.25;;
57842;SDS011;43673;51.058;3.734;2023-07-24T03:41:19;4.47;;;3.88;;
57842;SDS011;43673;51.058;3.734;2023-07-24T03:43:45;4.60;;;3.45;;
57842;SDS011;43673;51.058;3.734;2023-07-24T03:46:10;3.65;;;3.03;;
57842;SDS011;43673;51.058;3.734;2023-07-24T03:48:36;5.57;;;3.67;;
57842;SDS011;43673;51.058;3.734;2023-07-24T03:51:02;3.95;;;2.78;;
57842;SDS011;43673;51.058;3.734;2023-07-24T03:53:28;4.40;;;3.03;;
57842;SDS011;43673;51.058;3.734;2023-07-24T03:55:53;5.13;;;3.22;;
57842;SDS011;43673;51.058;3.734;2023-07-24T03:58:19;4.78;;;3.47;;
57842;SDS011;43673;51.058;3.734;2023-07-24T04:00:45;5.15;;;4.22;;
57842;SDS011;43673;51.058;3.734;2023-07-24T04:03:11;5.82;;;4.07;;
57842;SDS011;43673;51.058;3.734;2023-07-24T04:05:37;5.00;;;3.58;;
57842;SDS011;43673;51.058;3.734;2023-07-24T04:08:03;3.97;;;3.45;;
57842;SDS011;43673;51.058;3.734;2023-07-24T04:10:29;4.03;;;3.40;;
57842;SDS011;43673;51.058;3.734;2023-07-24T04:12:56;6.00;;;4.07;;
57842;SDS011;43673;51.058;3.734;2023-07-24T04:15:22;4.80;;;3.83;;
57842;SDS011;43673;51.058;3.734;2023-07-24T04:17:48;5.20;;;3.67;;
57842;SDS011;43673;51.058;3.734;2023-07-24T04:20:14;6.53;;;3.97;;
57842;SDS011;43673;51.058;3.734;2023-07-24T04:22:39;3.80;;;3.40;;
57842;SDS011;43673;51.058;3.734;2023-07-24T04:25:06;5.40;;;4.53;;
57842;SDS011;43673;51.058;3.734;2023-07-24T04:27:32;5.20;;;3.78;;
57842;SDS011;43673;51.058;3.734;2023-07-24T04:29:57;4.45;;;3.28;;
57842;SDS011;43673;51.058;3.734;2023-07-24T04:32:26;4.45;;;3.00;;
57842;SDS011;43673;51.058;3.734;2023-07-24T04:34:52;5.32;;;3.30;;
57842;SDS011;43673;51.058;3.734;2023-07-24T04:37:18;4.35;;;3.45;;
57842;SDS011;43673;51.058;3.734;2023-07-24T04:39:44;4.82;;;3.35;;
57842;SDS011;43673;51.058;3.734;2023-07-24T04:42:09;4.65;;;3.67;;
57842;SDS011;43673;51.058;3.734;2023-07-24T04:44:35;4.55;;;3.95;;
57842;SDS011;43673;51.058;3.734;2023-07-24T04:47:01;5.47;;;3.50;;
57842;SDS011;43673;51.058;3.734;2023-07-24T04:49:30;6.07;;;4.25;;
57842;SDS011;43673;51.058;3.734;2023-07-24T04:52:28;9.25;;;4.18;;
57842;SDS011;43673;51.058;3.734;2023-07-24T04:54:53;4.40;;;3.42;;
57842;SDS011;43673;51.058;3.734;2023-07-24T04:57:19;6.15;;;3.53;;
57842;SDS011;43673;51.058;3.734;2023-07-24T04:59:45;4.53;;;3.28;;
57842;SDS011;43673;51.058;3.734;2023-07-24T05:02:11;5.20;;;3.50;;
57842;SDS011;43673;51.058;3.734;2023-07-24T05:04:37;4.22;;;3.38;;
57842;SDS011;43673;51.058;3.734;2023-07-24T05:07:03;7.53;;;3.75;;
57842;SDS011;43673;51.058;3.734;2023-07-24T05:09:28;6.13;;;4.32;;
57842;SDS011;43673;51.058;3.734;2023-07-24T05:11:54;4.03;;;3.30;;
57842;SDS011;43673;51.058;3.734;2023-07-24T05:14:20;7.35;;;4.60;;
57842;SDS011;43673;51.058;3.734;2023-07-24T05:16:45;4.35;;;3.40;;
57842;SDS011;43673;51.058;3.734;2023-07-24T05:19:11;5.75;;;3.97;;
57842;SDS011;43673;51.058;3.734;2023-07-24T05:21:37;5.20;;;4.03;;
57842;SDS011;43673;51.058;3.734;2023-07-24T05:24:02;5.53;;;3.97;;
57842;SDS011;43673;51.058;3.734;2023-07-24T05:26:28;4.22;;;3.50;;
57842;SDS011;43673;51.058;3.734;2023-07-24T05:28:54;9.35;;;3.92;;
57842;SDS011;43673;51.058;3.734;2023-07-24T05:31:20;5.78;;;3.90;;
57842;SDS011;43673;51.058;3.734;2023-07-24T05:33:45;5.03;;;3.75;;
57842;SDS011;43673;51.058;3.734;2023-07-24T05:38:46;6.28;;;3.90;;
57842;SDS011;43673;51.058;3.734;2023-07-24T05:41:12;5.43;;;4.05;;
57842;SDS011;43673;51.058;3.734;2023-07-24T05:43:37;5.43;;;4.05;;
57842;SDS011;43673;51.058;3.734;2023-07-24T05:46:03;4.47;;;3.53;;
57842;SDS011;43673;51.058;3.734;2023-07-24T05:48:29;3.63;;;3.15;;
57842;SDS011;43673;51.058;3.734;2023-07-24T05:50:54;4.97;;;3.35;;
57842;SDS011;43673;51.058;3.734;2023-07-24T05:53:20;5.05;;;3.63;;
57842;SDS011;43673;51.058;3.734;2023-07-24T05:55:46;4.00;;;3.22;;
57842;SDS011;43673;51.058;3.734;2023-07-24T05:58:12;5.15;;;3.22;;
57842;SDS011;43673;51.058;3.734;2023-07-24T06:00:37;4.90;;;4.40;;
57842;SDS011;43673;51.058;3.734;2023-07-24T06:03:04;3.97;;;3.10;;
57842;SDS011;43673;51.058;3.734;2023-07-24T06:05:29;5.65;;;3.60;;
57842;SDS011;43673;51.058;3.734;2023-07-24T06:07:55;5.80;;;3.60;;
57842;SDS011;43673;51.058;3.734;2023-07-24T06:10:21;4.82;;;3.33;;
57842;SDS011;43673;51.058;3.734;2023-07-24T06:12:46;4.78;;;3.42;;
57842;SDS011;43673;51.058;3.734;2023-07-24T06:15:12;5.50;;;4.47;;
57842;SDS011;43673;51.058;3.734;2023-07-24T06:17:38;5.32;;;4.32;;
57842;SDS011;43673;51.058;3.734;2023-07-24T06:20:04;6.32;;;4.55;;
57842;SDS011;43673;51.058;3.734;2023-07-24T06:22:31;4.78;;;4.15;;
57842;SDS011;43673;51.058;3.734;2023-07-24T06:24:57;9.10;;;4.55;;
57842;SDS011;43673;51.058;3.734;2023-07-24T06:27:22;5.47;;;4.30;;
57842;SDS011;43673;51.058;3.734;2023-07-24T06:29:48;7.70;;;4.10;;
57842;SDS011;43673;51.058;3.734;2023-07-24T06:32:14;5.82;;;3.90;;
57842;SDS011;43673;51.058;3.734;2023-07-24T06:34:39;7.72;;;4.63;;
57842;SDS011;43673;51.058;3.734;2023-07-24T06:37:05;8.63;;;5.45;;
57842;SDS011;43673;51.058;3.734;2023-07-24T06:39:31;5.57;;;4.35;;
57842;SDS011;43673;51.058;3.734;2023-07-24T06:41:58;5.32;;;3.65;;
57842;SDS011;43673;51.058;3.734;2023-07-24T06:44:24;5.32;;;4.15;;
57842;SDS011;43673;51.058;3.734;2023-07-24T06:46:49;5.50;;;4.50;;
57842;SDS011;43673;51.058;3.734;2023-07-24T06:49:15;8.63;;;4.38;;
57842;SDS011;43673;51.058;3.734;2023-07-24T06:51:44;7.30;;;4.43;;
57842;SDS011;43673;51.058;3.734;2023-07-24T06:54:09;7.10;;;4.93;;
57842;SDS011;43673;51.058;3.734;2023-07-24T06:56:36;6.28;;;4.70;;
57842;SDS011;43673;51.058;3.734;2023-07-24T06:59:01;8.18;;;6.07;;
57842;SDS011;43673;51.058;3.734;2023-07-24T07:01:27;8.90;;;5.25;;
57842;SDS011;43673;51.058;3.734;2023-07-24T07:03:53;7.30;;;5.10;;
57842;SDS011;43673;51.058;3.734;2023-07-24T07:06:19;7.30;;;5.65;;
57842;SDS011;43673;51.058;3.734;2023-07-24T07:08:44;7.95;;;5.55;;
57842;SDS011;43673;51.058;3.734;2023-07-24T07:11:10;5.53;;;4.65;;
57842;SDS011;43673;51.058;3.734;2023-07-24T07:13:36;7.10;;;4.60;;
57842;SDS011;43673;51.058;3.734;2023-07-24T07:16:01;5.15;;;4.07;;
57842;SDS011;43673;51.058;3.734;2023-07-24T07:18:27;5.07;;;3.72;;
57842;SDS011;43673;51.058;3.734;2023-07-24T07:20:53;4.82;;;3.97;;
57842;SDS011;43673;51.058;3.734;2023-07-24T07:23:19;5.15;;;3.72;;
57842;SDS011;43673;51.058;3.734;2023-07-24T07:25:45;6.70;;;3.95;;
57842;SDS011;43673;51.058;3.734;2023-07-24T07:28:12;5.15;;;3.55;;
57842;SDS011;43673;51.058;3.734;2023-07-24T07:30:39;5.55;;;3.15;;
57842;SDS011;43673;51.058;3.734;2023-07-24T07:33:05;4.97;;;3.63;;
57842;SDS011;43673;51.058;3.734;2023-07-24T07:35:34;7.20;;;3.78;;
57842;SDS011;43673;51.058;3.734;2023-07-24T07:38:01;5.22;;;4.05;;
57842;SDS011;43673;51.058;3.734;2023-07-24T07:40:27;5.65;;;3.25;;
57842;SDS011;43673;51.058;3.734;2023-07-24T07:42:53;4.30;;;3.60;;
57842;SDS011;43673;51.058;3.734;2023-07-24T07:45:20;5.28;;;3.35;;
57842;SDS011;43673;51.058;3.734;2023-07-24T07:47:46;4.75;;;3.17;;
57842;SDS011;43673;51.058;3.734;2023-07-24T07:50:12;3.70;;;3.20;;
57842;SDS011;43673;51.058;3.734;2023-07-24T07:52:38;3.63;;;3.17;;
57842;SDS011;43673;51.058;3.734;2023-07-24T07:55:04;3.55;;;2.80;;
57842;SDS011;43673;51.058;3.734;2023-07-24T07:57:36;4.00;;;3.00;;
57842;SDS011;43673;51.058;3.734;2023-07-24T08:00:03;4.60;;;3.13;;
57842;SDS011;43673;51.058;3.734;2023-07-24T08:02:31;5.20;;;3.70;;
57842;SDS011;43673;51.058;3.734;2023-07-24T08:04:57;4.60;;;3.22;;
57842;SDS011;43673;51.058;3.734;2023-07-24T08:07:23;3.10;;;2.80;;
57842;SDS011;43673;51.058;3.734;2023-07-24T08:09:49;3.63;;;3.08;;
57842;SDS011;43673;51.058;3.734;2023-07-24T08:12:15;3.38;;;3.05;;
57842;SDS011;43673;51.058;3.734;2023-07-24T08:14:40;3.50;;;2.80;;
57842;SDS011;43673;51.058;3.734;2023-07-24T08:17:06;3.50;;;3.15;;
57842;SDS011;43673;51.058;3.734;2023-07-24T08:19:32;4.80;;;3.72;;
57842;SDS011;43673;51.058;3.734;2023-07-24T08:21:58;4.72;;;3.20;;
57842;SDS011;43673;51.058;3.734;2023-07-24T08:24:23;5.35;;;3.83;;
57842;SDS011;43673;51.058;3.734;2023-07-24T08:26:49;4.43;;;3.83;;
57842;SDS011;43673;51.058;3.734;2023-07-24T08:29:15;3.50;;;3.20;;
57842;SDS011;43673;51.058;3.734;2023-07-24T08:31:40;5.88;;;4.05;;
57842;SDS011;43673;51.058;3.734;2023-07-24T08:34:07;5.32;;;3.50;;
57842;SDS011;43673;51.058;3.734;2023-07-24T08:36:33;6.13;;;3.72;;
57842;SDS011;43673;51.058;3.734;2023-07-24T08:38:59;7.40;;;4.25;;
57842;SDS011;43673;51.058;3.734;2023-07-24T08:41:24;13.52;;;5.03;;
57842;SDS011;43673;51.058;3.734;2023-07-24T08:43:50;4.53;;;4.07;;
57842;SDS011;43673;51.058;3.734;2023-07-24T08:46:19;6.57;;;3.72;;
57842;SDS011;43673;51.058;3.734;2023-07-24T08:48:47;4.28;;;3.15;;
57842;SDS011;43673;51.058;3.734;2023-07-24T08:51:17;7.28;;;4.10;;
57842;SDS011;43673;51.058;3.734;2023-07-24T08:53:50;4.88;;;3.60;;
57842;SDS011;43673;51.058;3.734;2023-07-24T08:56:19;8.00;;;3.92;;
57842;SDS011;43673;51.058;3.734;2023-07-24T08:58:45;4.50;;;3.13;;
57842;SDS011;43673;51.058;3.734;2023-07-24T09:01:11;3.50;;;3.20;;
57842;SDS011;43673;51.058;3.734;2023-07-24T09:03:37;3.95;;;3.13;;
57842;SDS011;43673;51.058;3.734;2023-07-24T09:06:04;5.15;;;3.90;;
57842;SDS011;43673;51.058;3.734;2023-07-24T09:08:37;4.95;;;3.38;;
57842;SDS011;43673;51.058;3.734;2023-07-24T09:11:04;3.88;;;3.53;;
57842;SDS011;43673;51.058;3.734;2023-07-24T09:13:31;5.43;;;3.58;;
57842;SDS011;43673;51.058;3.734;2023-07-24T09:15:58;4.25;;;3.40;;
57842;SDS011;43673;51.058;3.734;2023-07-24T09:18:26;3.58;;;3.17;;
57842;SDS011;43673;51.058;3.734;2023-07-24T09:20:52;4.20;;;3.28;;
57842;SDS011;43673;51.058;3.734;2023-07-24T09:23:25;5.47;;;3.97;;
57842;SDS011;43673;51.058;3.734;2023-07-24T09:25:53;10.13;;;4.38;;
57842;SDS011;43673;51.058;3.734;2023-07-24T09:28:18;5.97;;;4.50;;
57842;SDS011;43673;51.058;3.734;2023-07-24T09:30:53;8.98;;;4.40;;
57842;SDS011;43673;51.058;3.734;2023-07-24T09:33:21;7.05;;;4.35;;
57842;SDS011;43673;51.058;3.734;2023-07-24T09:35:57;14.40;;;5.13;;
57842;SDS011;43673;51.058;3.734;2023-07-24T09:38:26;8.15;;;5.72;;
57842;SDS011;43673;51.058;3.734;2023-07-24T09:40:53;6.47;;;5.05;;
57842;SDS011;43673;51.058;3.734;2023-07-24T09:43:27;37.20;;;8.07;;
57842;SDS011;43673;51.058;3.734;2023-07-24T09:45:54;17.48;;;10.93;;
57842;SDS011;43673;51.058;3.734;2023-07-24T09:48:21;18.25;;;5.78;;
57842;SDS011;43673;51.058;3.734;2023-07-24T09:50:56;5.63;;;4.55;;
57842;SDS011;43673;51.058;3.734;2023-07-24T09:56:26;9.60;;;5.85;;
57842;SDS011;43673;51.058;3.734;2023-07-24T09:58:53;10.07;;;4.82;;
57842;SDS011;43673;51.058;3.734;2023-07-24T10:01:21;4.68;;;3.60;;
57842;SDS011;43673;51.058;3.734;2023-07-24T10:03:48;6.22;;;3.35;;
57842;SDS011;43673;51.058;3.734;2023-07-24T10:06:14;6.90;;;3.92;;
57842;SDS011;43673;51.058;3.734;2023-07-24T10:08:41;4.30;;;3.15;;
57842;SDS011;43673;51.058;3.734;2023-07-24T10:11:12;6.40;;;3.60;;
57842;SDS011;43673;51.058;3.734;2023-07-24T10:13:38;6.03;;;3.78;;
57842;SDS011;43673;51.058;3.734;2023-07-24T10:16:05;4.72;;;3.33;;
57842;SDS011;43673;51.058;3.734;2023-07-24T10:18:32;4.40;;;3.90;;
57842;SDS011;43673;51.058;3.734;2023-07-24T10:21:08;4.72;;;3.60;;
57842;SDS011;43673;51.058;3.734;2023-07-24T10:23:41;6.07;;;3.83;;
57842;SDS011;43673;51.058;3.734;2023-07-24T10:26:11;7.45;;;4.22;;
57842;SDS011;43673;51.058;3.734;2023-07-24T10:28:38;5.80;;;3.72;;
57842;SDS011;43673;51.058;3.734;2023-07-24T10:31:24;4.90;;;3.47;;
57842;SDS011;43673;51.058;3.734;2023-07-24T10:33:54;6.43;;;4.03;;
57842;SDS011;43673;51.058;3.734;2023-07-24T10:36:21;5.63;;;4.10;;
57842;SDS011;43673;51.058;3.734;2023-07-24T10:38:52;5.90;;;3.88;;
57842;SDS011;43673;51.058;3.734;2023-07-24T10:41:19;8.48;;;3.38;;
57842;SDS011;43673;51.058;3.734;2023-07-24T10:43:45;5.20;;;4.47;;
57842;SDS011;43673;51.058;3.734;2023-07-24T10:46:13;4.85;;;3.53;;
57842;SDS011;43673;51.058;3.734;2023-07-24T10:49:00;6.28;;;3.78;;
57842;SDS011;43673;51.058;3.734;2023-07-24T10:51:25;5.25;;;3.97;;
57842;SDS011;43673;51.058;3.734;2023-07-24T10:53:51;6.13;;;4.85;;
57842;SDS011;43673;51.058;3.734;2023-07-24T10:56:18;5.07;;;3.58;;
57842;SDS011;43673;51.058;3.734;2023-07-24T10:58:44;5.82;;;4.05;;
57842;SDS011;43673;51.058;3.734;2023-07-24T11:01:09;7.05;;;4.45;;
57842;SDS011;43673;51.058;3.734;2023-07-24T11:03:36;6.90;;;3.47;;
57842;SDS011;43673;51.058;3.734;2023-07-24T11:06:03;5.47;;;3.90;;
57842;SDS011;43673;51.058;3.734;2023-07-24T11:08:29;6.50;;;4.15;;
57842;SDS011;43673;51.058;3.734;2023-07-24T11:10:56;4.93;;;3.80;;
57842;SDS011;43673;51.058;3.734;2023-07-24T11:13:23;5.18;;;3.97;;
57842;SDS011;43673;51.058;3.734;2023-07-24T11:15:50;5.25;;;4.03;;
57842;SDS011;43673;51.058;3.734;2023-07-24T11:18:18;5.07;;;4.10;;
57842;SDS011;43673;51.058;3.734;2023-07-24T11:20:52;6.18;;;4.15;;
57842;SDS011;43673;51.058;3.734;2023-07-24T11:23:19;5.30;;;4.65;;
57842;SDS011;43673;51.058;3.734;2023-07-24T11:25:45;9.90;;;5.05;;
57842;SDS011;43673;51.058;3.734;2023-07-24T11:28:12;5.32;;;4.03;;
57842;SDS011;43673;51.058;3.734;2023-07-24T11:30:39;5.75;;;4.05;;
57842;SDS011;43673;51.058;3.734;2023-07-24T11:33:06;7.07;;;4.80;;
57842;SDS011;43673;51.058;3.734;2023-07-24T11:35:34;5.97;;;4.88;;
57842;SDS011;43673;51.058;3.734;2023-07-24T11:38:00;5.97;;;4.68;;
57842;SDS011;43673;51.058;3.734;2023-07-24T11:43:14;5.13;;;4.47;;
57842;SDS011;43673;51.058;3.734;2023-07-24T11:45:44;7.68;;;4.80;;
57842;SDS011;43673;51.058;3.734;2023-07-24T11:48:13;7.27;;;5.43;;
57842;SDS011;43673;51.058;3.734;2023-07-24T11:50:53;6.28;;;3.85;;
57842;SDS011;43673;51.058;3.734;2023-07-24T11:55:48;9.02;;;4.75;;
57842;SDS011;43673;51.058;3.734;2023-07-24T11:58:16;6.80;;;4.90;;
57842;SDS011;43673;51.058;3.734;2023-07-24T12:00:42;8.27;;;4.50;;
57842;SDS011;43673;51.058;3.734;2023-07-24T12:05:39;10.35;;;5.75;;
57842;SDS011;43673;51.058;3.734;2023-07-24T12:08:09;6.32;;;5.20;;
57842;SDS011;43673;51.058;3.734;2023-07-24T12:10:36;5.85;;;4.53;;
57842;SDS011;43673;51.058;3.734;2023-07-24T12:13:03;7.57;;;4.90;;
57842;SDS011;43673;51.058;3.734;2023-07-24T12:15:29;6.10;;;4.63;;
57842;SDS011;43673;51.058;3.734;2023-07-24T12:17:55;6.72;;;4.40;;
57842;SDS011;43673;51.058;3.734;2023-07-24T12:20:21;8.70;;;4.93;;
57842;SDS011;43673;51.058;3.734;2023-07-24T12:22:48;6.35;;;4.53;;
57842;SDS011;43673;51.058;3.734;2023-07-24T12:25:14;7.72;;;4.88;;
57842;SDS011;43673;51.058;3.734;2023-07-24T12:27:43;7.07;;;4.75;;
57842;SDS011;43673;51.058;3.734;2023-07-24T12:30:09;6.28;;;4.45;;
57842;SDS011;43673;51.058;3.734;2023-07-24T12:32:34;8.10;;;5.43;;
57842;SDS011;43673;51.058;3.734;2023-07-24T12:35:00;14.15;;;7.53;;
57842;SDS011;43673;51.058;3.734;2023-07-24T12:37:26;10.32;;;4.97;;
57842;SDS011;43673;51.058;3.734;2023-07-24T12:39:52;5.82;;;4.20;;
57842;SDS011;43673;51.058;3.734;2023-07-24T12:42:18;12.30;;;6.43;;
57842;SDS011;43673;51.058;3.734;2023-07-24T12:44:44;10.43;;;5.53;;
57842;SDS011;43673;51.058;3.734;2023-07-24T12:47:10;10.20;;;6.80;;
57842;SDS011;43673;51.058;3.734;2023-07-24T12:49:36;6.45;;;4.93;;
57842;SDS011;43673;51.058;3.734;2023-07-24T12:52:02;6.15;;;4.28;;
57842;SDS011;43673;51.058;3.734;2023-07-24T12:54:29;6.68;;;4.53;;
57842;SDS011;43673;51.058;3.734;2023-07-24T12:56:55;10.52;;;5.28;;
57842;SDS011;43673;51.058;3.734;2023-07-24T12:59:20;8.90;;;4.55;;
57842;SDS011;43673;51.058;3.734;2023-07-24T13:01:46;10.48;;;4.07;;
57842;SDS011;43673;51.058;3.734;2023-07-24T13:04:12;13.02;;;5.70;;
57842;SDS011;43673;51.058;3.734;2023-07-24T13:06:38;8.45;;;5.10;;
57842;SDS011;43673;51.058;3.734;2023-07-24T13:09:03;10.27;;;5.70;;
57842;SDS011;43673;51.058;3.734;2023-07-24T13:11:30;11.18;;;5.65;;
57842;SDS011;43673;51.058;3.734;2023-07-24T13:13:56;16.33;;;6.40;;
57842;SDS011;43673;51.058;3.734;2023-07-24T13:16:22;11.32;;;6.68;;
57842;SDS011;43673;51.058;3.734;2023-07-24T13:18:48;9.13;;;6.70;;
57842;SDS011;43673;51.058;3.734;2023-07-24T13:21:15;23.02;;;9.85;;
57842;SDS011;43673;51.058;3.734;2023-07-24T13:23:41;15.05;;;7.90;;
57842;SDS011;43673;51.058;3.734;2023-07-24T13:26:07;18.52;;;7.38;;
57842;SDS011;43673;51.058;3.734;2023-07-24T13:28:35;11.68;;;6.70;;
57842;SDS011;43673;51.058;3.734;2023-07-24T13:31:10;9.85;;;6.03;;
57842;SDS011;43673;51.058;3.734;2023-07-24T13:33:36;9.82;;;5.85;;
57842;SDS011;43673;51.058;3.734;2023-07-24T13:36:02;9.60;;;6.72;;
57842;SDS011;43673;51.058;3.734;2023-07-24T13:38:28;13.68;;;5.70;;
57842;SDS011;43673;51.058;3.734;2023-07-24T13:40:54;6.80;;;5.68;;
57842;SDS011;43673;51.058;3.734;2023-07-24T13:43:19;8.13;;;5.82;;
57842;SDS011;43673;51.058;3.734;2023-07-24T13:45:45;10.45;;;7.10;;
57842;SDS011;43673;51.058;3.734;2023-07-24T13:48:11;6.68;;;5.18;;
57842;SDS011;43673;51.058;3.734;2023-07-24T13:50:36;8.15;;;5.00;;
57842;SDS011;43673;51.058;3.734;2023-07-24T13:53:02;9.43;;;5.13;;
57842;SDS011;43673;51.058;3.734;2023-07-24T13:55:29;9.98;;;4.90;;
57842;SDS011;43673;51.058;3.734;2023-07-24T13:57:54;10.27;;;5.78;;
57842;SDS011;43673;51.058;3.734;2023-07-24T14:00:20;10.13;;;5.53;;
57842;SDS011;43673;51.058;3.734;2023-07-24T14:02:46;10.05;;;5.43;;
57842;SDS011;43673;51.058;3.734;2023-07-24T14:05:12;7.05;;;5.15;;
57842;SDS011;43673;51.058;3.734;2023-07-24T14:07:37;8.15;;;5.50;;
57842;SDS011;43673;51.058;3.734;2023-07-24T14:10:03;8.70;;;6.10;;
57842;SDS011;43673;51.058;3.734;2023-07-24T14:12:29;11.93;;;6.43;;
57842;SDS011;43673;51.058;3.734;2023-07-24T14:14:55;12.40;;;6.57;;
57842;SDS011;43673;51.058;3.734;2023-07-24T14:17:21;9.73;;;5.72;;
57842;SDS011;43673;51.058;3.734;2023-07-24T14:19:47;8.40;;;6.57;;
57842;SDS011;43673;51.058;3.734;2023-07-24T14:22:13;10.05;;;6.47;;
57842;SDS011;43673;51.058;3.734;2023-07-24T14:24:38;10.45;;;6.97;;
57842;SDS011;43673;51.058;3.734;2023-07-24T14:27:04;9.27;;;6.90;;
57842;SDS011;43673;51.058;3.734;2023-07-24T14:29:31;9.60;;;6.07;;
57842;SDS011;43673;51.058;3.734;2023-07-24T14:31:57;11.88;;;6.10;;
57842;SDS011;43673;51.058;3.734;2023-07-24T14:34:23;9.07;;;5.55;;
57842;SDS011;43673;51.058;3.734;2023-07-24T14:36:48;14.43;;;7.03;;
57842;SDS011;43673;51.058;3.734;2023-07-24T14:39:14;11.73;;;5.53;;
57842;SDS011;43673;51.058;3.734;2023-07-24T14:41:40;9.63;;;6.05;;
57842;SDS011;43673;51.058;3.734;2023-07-24T14:44:05;9.63;;;5.53;;
57842;SDS011;43673;51.058;3.734;2023-07-24T14:46:31;9.88;;;5.80;;
57842;SDS011;43673;51.058;3.734;2023-07-24T14:48:57;8.18;;;4.82;;
57842;SDS011;43673;51.058;3.734;2023-07-24T14:51:23;9.80;;;6.00;;
57842;SDS011;43673;51.058;3.734;2023-07-24T14:53:50;7.78;;;4.78;;
57842;SDS011;43673;51.058;3.734;2023-07-24T14:56:15;7.43;;;4.47;;
57842;SDS011;43673;51.058;3.734;2023-07-24T14:58:41;12.02;;;5.68;;
57842;SDS011;43673;51.058;3.734;2023-07-24T15:01:10;7.35;;;4.30;;